sensor_id;sensor_type;location;lat;lon;timestamp;P1;durP1;ratioP1;P2;durP2;ratioP2
32292;SDS011;43233;48.608;8.838;2023-08-06T00:00:05;2.20;;;2.10;;
32292;SDS011;43233;48.608;8.838;2023-08-06T00:02:31;2.40;;;2.20;;
32292;SDS011;43233;48.608;8.838;2023-08-06T00:04:56;8.43;;;2.40;;
32292;SDS011;43233;48.608;8.838;2023-08-06T00:07:22;3.97;;;2.60;;
32292;SDS011;43233;48.608;8.838;2023-08-06T00:09:48;2.67;;;2.40;;
32292;SDS011;43233;48.608;8.838;2023-08-06T00:12:13;2.77;;;2.63;;
32292;SDS011;43233;48.608;8.838;2023-08-06T00:14:39;3.57;;;2.27;;
32292;SDS011;43233;48.608;8.838;2023-08-06T00:17:04;2.67;;;2.47;;
32292;SDS011;43233;48.608;8.838;2023-08-06T00:19:31;6.97;;;2.53;;
32292;SDS011;43233;48.608;8.838;2023-08-06T00:21:57;2.47;;;2.30;;
32292;SDS011;43233;48.608;8.838;2023-08-06T00:24:22;2.90;;;2.70;;
32292;SDS011;43233;48.608;8.838;2023-08-06T00:26:48;2.40;;;2.30;;
32292;SDS011;43233;48.608;8.838;2023-08-06T00:29:13;2.40;;;2.20;;
32292;SDS011;43233;48.608;8.838;2023-08-06T00:31:39;4.20;;;2.70;;
32292;SDS011;43233;48.608;8.838;2023-08-06T00:34:05;1.93;;;1.83;;
32292;SDS011;43233;48.608;8.838;2023-08-06T00:36:30;3.33;;;2.73;;
32292;SDS011;43233;48.608;8.838;2023-08-06T00:38:56;2.00;;;1.90;;
32292;SDS011;43233;48.608;8.838;2023-08-06T00:41:22;2.20;;;2.00;;
32292;SDS011;43233;48.608;8.838;2023-08-06T00:43:47;8.30;;;2.20;;
32292;SDS011;43233;48.608;8.838;2023-08-06T00:46:13;2.50;;;2.40;;
32292;SDS011;43233;48.608;8.838;2023-08-06T00:48:39;2.50;;;2.30;;
32292;SDS011;43233;48.608;8.838;2023-08-06T00:51:05;2.80;;;2.30;;
32292;SDS011;43233;48.608;8.838;2023-08-06T00:53:32;2.93;;;2.20;;
32292;SDS011;43233;48.608;8.838;2023-08-06T00:55:58;2.30;;;2.20;;
32292;SDS011;43233;48.608;8.838;2023-08-06T00:58:24;3.83;;;2.37;;
32292;SDS011;43233;48.608;8.838;2023-08-06T01:00:50;5.53;;;2.20;;
32292;SDS011;43233;48.608;8.838;2023-08-06T01:03:16;7.23;;;2.50;;
32292;SDS011;43233;48.608;8.838;2023-08-06T01:05:42;6.07;;;2.30;;
32292;SDS011;43233;48.608;8.838;2023-08-06T01:14:30;1.93;;;1.83;;
32292;SDS011;43233;48.608;8.838;2023-08-06T01:17:11;5.30;;;2.47;;
32292;SDS011;43233;48.608;8.838;2023-08-06T01:19:37;3.43;;;3.03;;
32292;SDS011;43233;48.608;8.838;2023-08-06T01:22:03;2.60;;;2.40;;
32292;SDS011;43233;48.608;8.838;2023-08-06T01:24:29;2.30;;;2.10;;
32292;SDS011;43233;48.608;8.838;2023-08-06T01:27:00;3.30;;;2.30;;
32292;SDS011;43233;48.608;8.838;2023-08-06T01:29:35;1.97;;;1.83;;
32292;SDS011;43233;48.608;8.838;2023-08-06T01:32:10;2.10;;;1.90;;
32292;SDS011;43233;48.608;8.838;2023-08-06T01:34:39;7.20;;;2.30;;
32292;SDS011;43233;48.608;8.838;2023-08-06T01:37:06;5.03;;;2.90;;
32292;SDS011;43233;48.608;8.838;2023-08-06T01:39:33;4.63;;;2.40;;
32292;SDS011;43233;48.608;8.838;2023-08-06T01:41:58;2.13;;;2.03;;
32292;SDS011;43233;48.608;8.838;2023-08-06T01:44:24;2.87;;;2.30;;
32292;SDS011;43233;48.608;8.838;2023-08-06T01:46:49;4.43;;;2.10;;
32292;SDS011;43233;48.608;8.838;2023-08-06T01:49:15;3.03;;;2.00;;
32292;SDS011;43233;48.608;8.838;2023-08-06T01:51:41;2.30;;;2.00;;
32292;SDS011;43233;48.608;8.838;2023-08-06T01:54:06;3.20;;;2.93;;
32292;SDS011;43233;48.608;8.838;2023-08-06T01:56:32;2.53;;;2.10;;
32292;SDS011;43233;48.608;8.838;2023-08-06T01:58:57;2.80;;;2.60;;
32292;SDS011;43233;48.608;8.838;2023-08-06T02:01:23;2.90;;;2.63;;
32292;SDS011;43233;48.608;8.838;2023-08-06T02:03:49;2.47;;;2.33;;
32292;SDS011;43233;48.608;8.838;2023-08-06T02:06:14;3.10;;;2.90;;
32292;SDS011;43233;48.608;8.838;2023-08-06T02:08:40;2.83;;;2.63;;
32292;SDS011;43233;48.608;8.838;2023-08-06T02:11:05;3.50;;;3.07;;
32292;SDS011;43233;48.608;8.838;2023-08-06T02:13:31;3.93;;;3.20;;
32292;SDS011;43233;48.608;8.838;2023-08-06T02:15:56;3.90;;;3.30;;
32292;SDS011;43233;48.608;8.838;2023-08-06T02:18:22;7.13;;;2.70;;
32292;SDS011;43233;48.608;8.838;2023-08-06T02:20:57;4.57;;;3.20;;
32292;SDS011;43233;48.608;8.838;2023-08-06T02:23:24;3.00;;;2.70;;
32292;SDS011;43233;48.608;8.838;2023-08-06T02:26:04;3.23;;;2.93;;
32292;SDS011;43233;48.608;8.838;2023-08-06T02:28:30;2.83;;;2.57;;
32292;SDS011;43233;48.608;8.838;2023-08-06T02:30:56;2.83;;;2.53;;
32292;SDS011;43233;48.608;8.838;2023-08-06T02:33:22;4.10;;;3.13;;
32292;SDS011;43233;48.608;8.838;2023-08-06T02:35:48;3.03;;;2.83;;
32292;SDS011;43233;48.608;8.838;2023-08-06T02:38:14;3.07;;;2.87;;
32292;SDS011;43233;48.608;8.838;2023-08-06T02:40:43;7.07;;;2.67;;
32292;SDS011;43233;48.608;8.838;2023-08-06T02:43:12;2.73;;;2.30;;
32292;SDS011;43233;48.608;8.838;2023-08-06T02:45:38;4.73;;;2.80;;
32292;SDS011;43233;48.608;8.838;2023-08-06T02:48:03;6.00;;;2.70;;
32292;SDS011;43233;48.608;8.838;2023-08-06T02:50:29;2.67;;;2.47;;
32292;SDS011;43233;48.608;8.838;2023-08-06T02:52:55;2.67;;;2.47;;
32292;SDS011;43233;48.608;8.838;2023-08-06T02:55:20;3.20;;;2.63;;
32292;SDS011;43233;48.608;8.838;2023-08-06T02:57:46;2.73;;;2.50;;
32292;SDS011;43233;48.608;8.838;2023-08-06T03:00:12;2.87;;;2.67;;
32292;SDS011;43233;48.608;8.838;2023-08-06T03:02:37;2.90;;;2.57;;
32292;SDS011;43233;48.608;8.838;2023-08-06T03:05:03;3.30;;;2.50;;
32292;SDS011;43233;48.608;8.838;2023-08-06T03:07:29;3.63;;;2.40;;
32292;SDS011;43233;48.608;8.838;2023-08-06T03:09:55;2.60;;;2.40;;
32292;SDS011;43233;48.608;8.838;2023-08-06T03:12:20;2.57;;;2.37;;
32292;SDS011;43233;48.608;8.838;2023-08-06T03:14:46;2.97;;;2.20;;
32292;SDS011;43233;48.608;8.838;2023-08-06T03:17:12;2.30;;;2.10;;
32292;SDS011;43233;48.608;8.838;2023-08-06T03:19:37;2.90;;;2.60;;
32292;SDS011;43233;48.608;8.838;2023-08-06T03:22:03;2.00;;;1.90;;
32292;SDS011;43233;48.608;8.838;2023-08-06T03:24:29;2.77;;;2.57;;
32292;SDS011;43233;48.608;8.838;2023-08-06T03:26:54;3.50;;;2.20;;
32292;SDS011;43233;48.608;8.838;2023-08-06T03:29:20;6.70;;;2.73;;
32292;SDS011;43233;48.608;8.838;2023-08-06T03:31:46;2.50;;;1.97;;
32292;SDS011;43233;48.608;8.838;2023-08-06T03:34:12;3.53;;;2.13;;
32292;SDS011;43233;48.608;8.838;2023-08-06T03:36:37;2.07;;;1.87;;
32292;SDS011;43233;48.608;8.838;2023-08-06T03:39:03;2.60;;;2.23;;
32292;SDS011;43233;48.608;8.838;2023-08-06T03:41:29;4.33;;;2.83;;
32292;SDS011;43233;48.608;8.838;2023-08-06T03:43:54;4.37;;;2.30;;
32292;SDS011;43233;48.608;8.838;2023-08-06T03:46:20;3.70;;;2.17;;
32292;SDS011;43233;48.608;8.838;2023-08-06T03:48:45;2.63;;;2.30;;
32292;SDS011;43233;48.608;8.838;2023-08-06T03:51:11;3.30;;;2.20;;
32292;SDS011;43233;48.608;8.838;2023-08-06T03:53:36;2.63;;;1.80;;
32292;SDS011;43233;48.608;8.838;2023-08-06T03:56:02;6.10;;;1.70;;
32292;SDS011;43233;48.608;8.838;2023-08-06T03:58:28;8.43;;;2.40;;
32292;SDS011;43233;48.608;8.838;2023-08-06T04:01:00;3.20;;;1.90;;
32292;SDS011;43233;48.608;8.838;2023-08-06T04:03:27;8.93;;;1.80;;
32292;SDS011;43233;48.608;8.838;2023-08-06T04:05:53;2.40;;;1.80;;
32292;SDS011;43233;48.608;8.838;2023-08-06T04:08:19;1.77;;;1.50;;
32292;SDS011;43233;48.608;8.838;2023-08-06T04:10:44;4.50;;;1.20;;
32292;SDS011;43233;48.608;8.838;2023-08-06T04:13:10;1.43;;;1.20;;
32292;SDS011;43233;48.608;8.838;2023-08-06T04:15:36;7.80;;;2.40;;
32292;SDS011;43233;48.608;8.838;2023-08-06T04:18:01;3.63;;;1.43;;
32292;SDS011;43233;48.608;8.838;2023-08-06T04:20:27;2.00;;;1.50;;
32292;SDS011;43233;48.608;8.838;2023-08-06T04:22:56;2.30;;;1.30;;
32292;SDS011;43233;48.608;8.838;2023-08-06T04:25:21;2.70;;;1.90;;
32292;SDS011;43233;48.608;8.838;2023-08-06T04:27:48;1.40;;;1.20;;
32292;SDS011;43233;48.608;8.838;2023-08-06T04:30:14;4.83;;;1.73;;
32292;SDS011;43233;48.608;8.838;2023-08-06T04:32:39;1.37;;;1.13;;
32292;SDS011;43233;48.608;8.838;2023-08-06T04:35:05;1.93;;;1.03;;
32292;SDS011;43233;48.608;8.838;2023-08-06T04:37:31;2.40;;;1.00;;
32292;SDS011;43233;48.608;8.838;2023-08-06T04:39:57;1.47;;;1.23;;
32292;SDS011;43233;48.608;8.838;2023-08-06T04:42:23;2.80;;;1.47;;
32292;SDS011;43233;48.608;8.838;2023-08-06T04:44:49;2.53;;;1.27;;
32292;SDS011;43233;48.608;8.838;2023-08-06T04:47:15;1.50;;;1.40;;
32292;SDS011;43233;48.608;8.838;2023-08-06T04:49:41;1.20;;;1.10;;
32292;SDS011;43233;48.608;8.838;2023-08-06T04:52:07;1.67;;;1.23;;
32292;SDS011;43233;48.608;8.838;2023-08-06T04:54:32;1.20;;;1.03;;
32292;SDS011;43233;48.608;8.838;2023-08-06T04:56:58;2.93;;;1.10;;
32292;SDS011;43233;48.608;8.838;2023-08-06T04:59:24;1.87;;;0.90;;
32292;SDS011;43233;48.608;8.838;2023-08-06T05:01:49;2.43;;;0.93;;
32292;SDS011;43233;48.608;8.838;2023-08-06T05:04:15;2.80;;;1.30;;
32292;SDS011;43233;48.608;8.838;2023-08-06T05:06:41;0.90;;;0.90;;
32292;SDS011;43233;48.608;8.838;2023-08-06T05:09:06;1.10;;;1.10;;
32292;SDS011;43233;48.608;8.838;2023-08-06T05:11:32;1.37;;;1.27;;
32292;SDS011;43233;48.608;8.838;2023-08-06T05:13:57;2.20;;;1.23;;
32292;SDS011;43233;48.608;8.838;2023-08-06T05:16:23;1.83;;;1.37;;
32292;SDS011;43233;48.608;8.838;2023-08-06T05:18:49;3.13;;;1.10;;
32292;SDS011;43233;48.608;8.838;2023-08-06T05:21:15;2.00;;;1.10;;
32292;SDS011;43233;48.608;8.838;2023-08-06T05:23:41;4.30;;;1.27;;
32292;SDS011;43233;48.608;8.838;2023-08-06T05:26:07;2.40;;;1.30;;
32292;SDS011;43233;48.608;8.838;2023-08-06T05:28:33;1.97;;;1.20;;
32292;SDS011;43233;48.608;8.838;2023-08-06T05:31:03;1.30;;;1.30;;
32292;SDS011;43233;48.608;8.838;2023-08-06T05:33:29;2.27;;;1.57;;
32292;SDS011;43233;48.608;8.838;2023-08-06T05:35:55;1.17;;;0.97;;
32292;SDS011;43233;48.608;8.838;2023-08-06T05:38:20;1.30;;;0.90;;
32292;SDS011;43233;48.608;8.838;2023-08-06T05:40:46;1.80;;;1.00;;
32292;SDS011;43233;48.608;8.838;2023-08-06T05:43:12;1.30;;;1.20;;
32292;SDS011;43233;48.608;8.838;2023-08-06T05:45:38;1.20;;;0.90;;
32292;SDS011;43233;48.608;8.838;2023-08-06T05:48:04;1.57;;;0.97;;
32292;SDS011;43233;48.608;8.838;2023-08-06T05:50:29;3.70;;;1.33;;
32292;SDS011;43233;48.608;8.838;2023-08-06T05:52:55;1.57;;;1.10;;
32292;SDS011;43233;48.608;8.838;2023-08-06T05:55:21;2.60;;;1.10;;
32292;SDS011;43233;48.608;8.838;2023-08-06T05:57:47;5.33;;;1.10;;
32292;SDS011;43233;48.608;8.838;2023-08-06T06:00:13;2.10;;;1.20;;
32292;SDS011;43233;48.608;8.838;2023-08-06T06:02:38;1.80;;;1.07;;
32292;SDS011;43233;48.608;8.838;2023-08-06T06:05:04;1.80;;;1.33;;
32292;SDS011;43233;48.608;8.838;2023-08-06T06:07:30;1.33;;;1.23;;
32292;SDS011;43233;48.608;8.838;2023-08-06T06:09:55;1.50;;;0.90;;
32292;SDS011;43233;48.608;8.838;2023-08-06T06:12:21;1.17;;;0.80;;
32292;SDS011;43233;48.608;8.838;2023-08-06T06:14:47;1.07;;;0.90;;
32292;SDS011;43233;48.608;8.838;2023-08-06T06:17:13;0.70;;;0.70;;
32292;SDS011;43233;48.608;8.838;2023-08-06T06:19:38;1.33;;;1.13;;
32292;SDS011;43233;48.608;8.838;2023-08-06T06:22:04;1.17;;;1.10;;
32292;SDS011;43233;48.608;8.838;2023-08-06T06:24:29;2.27;;;1.20;;
32292;SDS011;43233;48.608;8.838;2023-08-06T06:26:55;1.33;;;0.97;;
32292;SDS011;43233;48.608;8.838;2023-08-06T06:29:21;2.50;;;1.10;;
32292;SDS011;43233;48.608;8.838;2023-08-06T06:31:47;1.73;;;1.30;;
32292;SDS011;43233;48.608;8.838;2023-08-06T06:34:12;2.43;;;0.87;;
32292;SDS011;43233;48.608;8.838;2023-08-06T06:36:38;1.20;;;1.00;;
32292;SDS011;43233;48.608;8.838;2023-08-06T06:39:04;1.20;;;1.10;;
32292;SDS011;43233;48.608;8.838;2023-08-06T06:41:30;2.50;;;2.30;;
32292;SDS011;43233;48.608;8.838;2023-08-06T06:43:58;2.27;;;2.17;;
32292;SDS011;43233;48.608;8.838;2023-08-06T06:46:23;1.53;;;1.10;;
32292;SDS011;43233;48.608;8.838;2023-08-06T06:48:49;1.63;;;1.53;;
32292;SDS011;43233;48.608;8.838;2023-08-06T06:51:15;1.07;;;1.07;;
32292;SDS011;43233;48.608;8.838;2023-08-06T06:53:40;1.17;;;1.17;;
32292;SDS011;43233;48.608;8.838;2023-08-06T06:56:06;1.43;;;1.00;;
32292;SDS011;43233;48.608;8.838;2023-08-06T06:58:32;1.40;;;1.30;;
32292;SDS011;43233;48.608;8.838;2023-08-06T07:00:58;0.83;;;0.83;;
32292;SDS011;43233;48.608;8.838;2023-08-06T07:03:23;5.53;;;1.33;;
32292;SDS011;43233;48.608;8.838;2023-08-06T07:05:49;1.47;;;0.70;;
32292;SDS011;43233;48.608;8.838;2023-08-06T07:08:15;2.30;;;0.80;;
32292;SDS011;43233;48.608;8.838;2023-08-06T07:10:42;0.83;;;0.70;;
32292;SDS011;43233;48.608;8.838;2023-08-06T07:13:08;1.00;;;1.00;;
32292;SDS011;43233;48.608;8.838;2023-08-06T07:15:34;0.90;;;0.80;;
32292;SDS011;43233;48.608;8.838;2023-08-06T07:17:59;0.70;;;0.70;;
32292;SDS011;43233;48.608;8.838;2023-08-06T07:20:25;0.80;;;0.77;;
32292;SDS011;43233;48.608;8.838;2023-08-06T07:22:54;6.83;;;0.90;;
32292;SDS011;43233;48.608;8.838;2023-08-06T07:25:19;0.90;;;0.90;;
32292;SDS011;43233;48.608;8.838;2023-08-06T07:27:45;1.00;;;1.00;;
32292;SDS011;43233;48.608;8.838;2023-08-06T07:30:11;0.70;;;0.70;;
32292;SDS011;43233;48.608;8.838;2023-08-06T07:32:36;0.90;;;0.70;;
32292;SDS011;43233;48.608;8.838;2023-08-06T07:35:02;0.70;;;0.70;;
32292;SDS011;43233;48.608;8.838;2023-08-06T07:37:28;0.80;;;0.80;;
32292;SDS011;43233;48.608;8.838;2023-08-06T07:39:54;1.13;;;1.03;;
32292;SDS011;43233;48.608;8.838;2023-08-06T07:42:20;0.70;;;0.70;;
32292;SDS011;43233;48.608;8.838;2023-08-06T07:44:51;2.40;;;0.80;;
32292;SDS011;43233;48.608;8.838;2023-08-06T07:47:20;1.33;;;0.70;;
32292;SDS011;43233;48.608;8.838;2023-08-06T07:49:46;0.70;;;0.70;;
32292;SDS011;43233;48.608;8.838;2023-08-06T07:52:12;1.00;;;0.90;;
32292;SDS011;43233;48.608;8.838;2023-08-06T07:54:37;0.77;;;0.77;;
32292;SDS011;43233;48.608;8.838;2023-08-06T07:57:03;0.80;;;0.80;;
32292;SDS011;43233;48.608;8.838;2023-08-06T07:59:29;0.80;;;0.80;;
32292;SDS011;43233;48.608;8.838;2023-08-06T08:01:54;1.10;;;1.00;;
32292;SDS011;43233;48.608;8.838;2023-08-06T08:04:20;0.93;;;0.90;;
32292;SDS011;43233;48.608;8.838;2023-08-06T08:06:46;0.67;;;0.67;;
32292;SDS011;43233;48.608;8.838;2023-08-06T08:09:12;0.77;;;0.73;;
32292;SDS011;43233;48.608;8.838;2023-08-06T08:11:39;2.10;;;0.80;;
32292;SDS011;43233;48.608;8.838;2023-08-06T08:14:05;0.73;;;0.73;;
32292;SDS011;43233;48.608;8.838;2023-08-06T08:16:31;0.80;;;0.80;;
32292;SDS011;43233;48.608;8.838;2023-08-06T08:18:56;0.70;;;0.70;;
32292;SDS011;43233;48.608;8.838;2023-08-06T08:21:22;0.70;;;0.70;;
32292;SDS011;43233;48.608;8.838;2023-08-06T08:23:49;0.80;;;0.80;;
32292;SDS011;43233;48.608;8.838;2023-08-06T08:26:15;0.80;;;0.80;;
32292;SDS011;43233;48.608;8.838;2023-08-06T08:28:41;0.80;;;0.80;;
32292;SDS011;43233;48.608;8.838;2023-08-06T08:31:10;1.20;;;1.20;;
32292;SDS011;43233;48.608;8.838;2023-08-06T08:33:38;1.67;;;1.57;;
32292;SDS011;43233;48.608;8.838;2023-08-06T08:36:04;1.37;;;1.33;;
32292;SDS011;43233;48.608;8.838;2023-08-06T08:38:30;1.30;;;1.30;;
32292;SDS011;43233;48.608;8.838;2023-08-06T08:40:55;0.90;;;0.90;;
32292;SDS011;43233;48.608;8.838;2023-08-06T08:43:21;0.70;;;0.70;;
32292;SDS011;43233;48.608;8.838;2023-08-06T08:45:49;0.67;;;0.67;;
32292;SDS011;43233;48.608;8.838;2023-08-06T08:48:17;0.90;;;0.90;;
32292;SDS011;43233;48.608;8.838;2023-08-06T08:50:47;1.27;;;0.80;;
32292;SDS011;43233;48.608;8.838;2023-08-06T08:53:14;0.80;;;0.80;;
32292;SDS011;43233;48.608;8.838;2023-08-06T08:55:41;0.90;;;0.90;;
32292;SDS011;43233;48.608;8.838;2023-08-06T08:58:08;1.07;;;0.97;;
32292;SDS011;43233;48.608;8.838;2023-08-06T09:00:34;0.80;;;0.80;;
32292;SDS011;43233;48.608;8.838;2023-08-06T09:03:00;0.70;;;0.70;;
32292;SDS011;43233;48.608;8.838;2023-08-06T09:05:31;0.60;;;0.60;;
32292;SDS011;43233;48.608;8.838;2023-08-06T09:08:00;0.70;;;0.70;;
32292;SDS011;43233;48.608;8.838;2023-08-06T09:10:28;1.00;;;0.70;;
32292;SDS011;43233;48.608;8.838;2023-08-06T09:12:53;0.70;;;0.70;;
32292;SDS011;43233;48.608;8.838;2023-08-06T09:15:23;0.70;;;0.70;;
32292;SDS011;43233;48.608;8.838;2023-08-06T09:17:50;1.00;;;1.00;;
32292;SDS011;43233;48.608;8.838;2023-08-06T09:20:17;0.67;;;0.67;;
32292;SDS011;43233;48.608;8.838;2023-08-06T09:22:42;0.60;;;0.60;;
32292;SDS011;43233;48.608;8.838;2023-08-06T09:25:09;0.70;;;0.70;;
32292;SDS011;43233;48.608;8.838;2023-08-06T09:27:37;2.10;;;1.80;;
32292;SDS011;43233;48.608;8.838;2023-08-06T09:30:04;1.33;;;1.23;;
32292;SDS011;43233;48.608;8.838;2023-08-06T09:32:47;2.10;;;1.20;;
32292;SDS011;43233;48.608;8.838;2023-08-06T09:35:17;1.10;;;1.10;;
32292;SDS011;43233;48.608;8.838;2023-08-06T09:37:43;0.70;;;0.70;;
32292;SDS011;43233;48.608;8.838;2023-08-06T09:40:25;0.77;;;0.77;;
32292;SDS011;43233;48.608;8.838;2023-08-06T09:42:55;0.93;;;0.87;;
32292;SDS011;43233;48.608;8.838;2023-08-06T09:45:21;2.93;;;1.00;;
32292;SDS011;43233;48.608;8.838;2023-08-06T09:47:52;0.90;;;0.90;;
32292;SDS011;43233;48.608;8.838;2023-08-06T09:50:21;0.90;;;0.90;;
32292;SDS011;43233;48.608;8.838;2023-08-06T09:52:47;0.80;;;0.80;;
32292;SDS011;43233;48.608;8.838;2023-08-06T09:55:14;1.00;;;0.90;;
32292;SDS011;43233;48.608;8.838;2023-08-06T09:57:40;0.87;;;0.87;;
32292;SDS011;43233;48.608;8.838;2023-08-06T10:00:07;1.23;;;1.10;;
32292;SDS011;43233;48.608;8.838;2023-08-06T10:02:40;1.13;;;0.93;;
32292;SDS011;43233;48.608;8.838;2023-08-06T10:05:07;1.00;;;1.00;;
32292;SDS011;43233;48.608;8.838;2023-08-06T10:07:33;1.43;;;0.80;;
32292;SDS011;43233;48.608;8.838;2023-08-06T10:09:59;0.70;;;0.70;;
32292;SDS011;43233;48.608;8.838;2023-08-06T10:12:25;0.60;;;0.60;;
32292;SDS011;43233;48.608;8.838;2023-08-06T10:14:55;0.70;;;0.70;;
32292;SDS011;43233;48.608;8.838;2023-08-06T10:17:23;0.70;;;0.70;;
32292;SDS011;43233;48.608;8.838;2023-08-06T10:19:50;0.70;;;0.70;;
32292;SDS011;43233;48.608;8.838;2023-08-06T10:22:19;1.63;;;0.90;;
32292;SDS011;43233;48.608;8.838;2023-08-06T10:24:53;0.73;;;0.70;;
32292;SDS011;43233;48.608;8.838;2023-08-06T10:27:21;0.80;;;0.80;;
32292;SDS011;43233;48.608;8.838;2023-08-06T10:29:47;0.90;;;0.90;;
32292;SDS011;43233;48.608;8.838;2023-08-06T10:32:13;0.70;;;0.70;;
32292;SDS011;43233;48.608;8.838;2023-08-06T10:34:57;2.20;;;1.10;;
32292;SDS011;43233;48.608;8.838;2023-08-06T10:37:34;0.70;;;0.70;;
32292;SDS011;43233;48.608;8.838;2023-08-06T10:40:01;0.70;;;0.70;;
32292;SDS011;43233;48.608;8.838;2023-08-06T10:42:28;1.00;;;0.90;;
32292;SDS011;43233;48.608;8.838;2023-08-06T10:47:42;0.80;;;0.80;;
32292;SDS011;43233;48.608;8.838;2023-08-06T10:50:11;0.77;;;0.77;;
32292;SDS011;43233;48.608;8.838;2023-08-06T10:52:39;1.17;;;1.07;;
32292;SDS011;43233;48.608;8.838;2023-08-06T10:55:05;7.30;;;0.90;;
32292;SDS011;43233;48.608;8.838;2023-08-06T10:57:31;0.70;;;0.70;;
32292;SDS011;43233;48.608;8.838;2023-08-06T10:59:56;0.80;;;0.80;;
32292;SDS011;43233;48.608;8.838;2023-08-06T11:02:22;0.80;;;0.80;;
32292;SDS011;43233;48.608;8.838;2023-08-06T11:04:48;0.70;;;0.70;;
32292;SDS011;43233;48.608;8.838;2023-08-06T11:07:14;0.80;;;0.70;;
32292;SDS011;43233;48.608;8.838;2023-08-06T11:09:39;0.63;;;0.63;;
32292;SDS011;43233;48.608;8.838;2023-08-06T11:12:18;0.70;;;0.70;;
32292;SDS011;43233;48.608;8.838;2023-08-06T11:14:49;3.13;;;0.70;;
32292;SDS011;43233;48.608;8.838;2023-08-06T11:17:15;0.60;;;0.60;;
32292;SDS011;43233;48.608;8.838;2023-08-06T11:19:41;0.60;;;0.60;;
32292;SDS011;43233;48.608;8.838;2023-08-06T11:22:06;0.70;;;0.70;;
32292;SDS011;43233;48.608;8.838;2023-08-06T11:24:32;0.70;;;0.70;;
32292;SDS011;43233;48.608;8.838;2023-08-06T11:26:59;0.80;;;0.80;;
32292;SDS011;43233;48.608;8.838;2023-08-06T11:29:25;0.70;;;0.70;;
32292;SDS011;43233;48.608;8.838;2023-08-06T11:31:51;0.90;;;0.90;;
32292;SDS011;43233;48.608;8.838;2023-08-06T11:34:16;0.70;;;0.70;;
32292;SDS011;43233;48.608;8.838;2023-08-06T11:36:42;0.73;;;0.73;;
32292;SDS011;43233;48.608;8.838;2023-08-06T11:39:08;1.00;;;0.90;;
32292;SDS011;43233;48.608;8.838;2023-08-06T11:41:35;0.73;;;0.73;;
32292;SDS011;43233;48.608;8.838;2023-08-06T11:44:03;0.80;;;0.77;;
32292;SDS011;43233;48.608;8.838;2023-08-06T11:46:29;0.80;;;0.80;;
32292;SDS011;43233;48.608;8.838;2023-08-06T11:49:14;0.90;;;0.90;;
32292;SDS011;43233;48.608;8.838;2023-08-06T11:51:40;0.93;;;0.90;;
32292;SDS011;43233;48.608;8.838;2023-08-06T11:54:05;0.70;;;0.70;;
32292;SDS011;43233;48.608;8.838;2023-08-06T11:56:32;0.80;;;0.80;;
32292;SDS011;43233;48.608;8.838;2023-08-06T11:58:57;0.80;;;0.80;;
32292;SDS011;43233;48.608;8.838;2023-08-06T12:01:23;1.00;;;1.00;;
32292;SDS011;43233;48.608;8.838;2023-08-06T12:03:50;1.03;;;1.03;;
32292;SDS011;43233;48.608;8.838;2023-08-06T12:06:16;2.10;;;1.00;;
32292;SDS011;43233;48.608;8.838;2023-08-06T12:08:41;2.10;;;1.17;;
32292;SDS011;43233;48.608;8.838;2023-08-06T12:11:07;3.23;;;1.20;;
32292;SDS011;43233;48.608;8.838;2023-08-06T12:13:33;1.60;;;1.20;;
32292;SDS011;43233;48.608;8.838;2023-08-06T12:15:59;1.53;;;1.40;;
32292;SDS011;43233;48.608;8.838;2023-08-06T12:18:25;2.73;;;1.50;;
32292;SDS011;43233;48.608;8.838;2023-08-06T12:20:50;3.33;;;1.30;;
32292;SDS011;43233;48.608;8.838;2023-08-06T12:23:16;1.40;;;1.30;;
32292;SDS011;43233;48.608;8.838;2023-08-06T12:25:42;1.50;;;1.40;;
32292;SDS011;43233;48.608;8.838;2023-08-06T12:28:09;3.60;;;1.10;;
32292;SDS011;43233;48.608;8.838;2023-08-06T12:30:35;1.27;;;1.20;;
32292;SDS011;43233;48.608;8.838;2023-08-06T12:33:01;1.10;;;1.10;;
32292;SDS011;43233;48.608;8.838;2023-08-06T12:35:26;1.07;;;1.07;;
32292;SDS011;43233;48.608;8.838;2023-08-06T12:37:52;1.10;;;1.10;;
32292;SDS011;43233;48.608;8.838;2023-08-06T12:40:20;1.10;;;1.10;;
32292;SDS011;43233;48.608;8.838;2023-08-06T12:42:46;0.97;;;0.97;;
32292;SDS011;43233;48.608;8.838;2023-08-06T12:45:12;2.47;;;2.30;;
32292;SDS011;43233;48.608;8.838;2023-08-06T12:47:37;1.07;;;1.07;;
32292;SDS011;43233;48.608;8.838;2023-08-06T12:50:03;0.80;;;0.80;;
32292;SDS011;43233;48.608;8.838;2023-08-06T12:52:29;1.30;;;1.20;;
32292;SDS011;43233;48.608;8.838;2023-08-06T12:54:55;1.37;;;1.10;;
32292;SDS011;43233;48.608;8.838;2023-08-06T12:57:21;1.20;;;1.00;;
32292;SDS011;43233;48.608;8.838;2023-08-06T12:59:46;1.97;;;1.70;;
32292;SDS011;43233;48.608;8.838;2023-08-06T13:02:13;1.00;;;1.00;;
32292;SDS011;43233;48.608;8.838;2023-08-06T13:04:38;1.40;;;1.30;;
32292;SDS011;43233;48.608;8.838;2023-08-06T13:07:04;1.10;;;1.00;;
32292;SDS011;43233;48.608;8.838;2023-08-06T13:09:31;0.90;;;0.90;;
32292;SDS011;43233;48.608;8.838;2023-08-06T13:11:57;4.00;;;1.20;;
32292;SDS011;43233;48.608;8.838;2023-08-06T13:14:25;1.30;;;1.27;;
32292;SDS011;43233;48.608;8.838;2023-08-06T13:16:50;1.20;;;0.90;;
32292;SDS011;43233;48.608;8.838;2023-08-06T13:19:16;1.27;;;1.00;;
32292;SDS011;43233;48.608;8.838;2023-08-06T13:24:16;0.90;;;0.90;;
32292;SDS011;43233;48.608;8.838;2023-08-06T13:26:42;1.23;;;0.90;;
32292;SDS011;43233;48.608;8.838;2023-08-06T13:29:08;1.10;;;1.10;;
32292;SDS011;43233;48.608;8.838;2023-08-06T13:31:33;1.53;;;1.43;;
32292;SDS011;43233;48.608;8.838;2023-08-06T13:33:59;1.40;;;1.30;;
32292;SDS011;43233;48.608;8.838;2023-08-06T13:36:28;0.90;;;0.90;;
32292;SDS011;43233;48.608;8.838;2023-08-06T13:38:54;0.90;;;0.80;;
32292;SDS011;43233;48.608;8.838;2023-08-06T13:41:20;2.53;;;1.20;;
32292;SDS011;43233;48.608;8.838;2023-08-06T13:43:46;2.20;;;0.70;;
32292;SDS011;43233;48.608;8.838;2023-08-06T13:46:11;1.27;;;1.27;;
32292;SDS011;43233;48.608;8.838;2023-08-06T13:48:41;1.20;;;1.10;;
32292;SDS011;43233;48.608;8.838;2023-08-06T13:51:06;1.10;;;1.00;;
32292;SDS011;43233;48.608;8.838;2023-08-06T13:53:32;2.60;;;1.00;;
32292;SDS011;43233;48.608;8.838;2023-08-06T13:55:58;1.37;;;1.27;;
32292;SDS011;43233;48.608;8.838;2023-08-06T13:58:23;1.20;;;1.20;;
32292;SDS011;43233;48.608;8.838;2023-08-06T14:00:50;1.33;;;0.90;;
32292;SDS011;43233;48.608;8.838;2023-08-06T14:03:18;1.07;;;0.90;;
32292;SDS011;43233;48.608;8.838;2023-08-06T14:05:44;6.53;;;1.10;;
32292;SDS011;43233;48.608;8.838;2023-08-06T14:08:09;0.90;;;0.70;;
32292;SDS011;43233;48.608;8.838;2023-08-06T14:10:35;0.70;;;0.70;;
32292;SDS011;43233;48.608;8.838;2023-08-06T14:13:01;0.80;;;0.80;;
32292;SDS011;43233;48.608;8.838;2023-08-06T14:15:26;1.43;;;1.33;;
32292;SDS011;43233;48.608;8.838;2023-08-06T14:17:52;1.10;;;1.00;;
32292;SDS011;43233;48.608;8.838;2023-08-06T14:20:18;1.17;;;0.80;;
32292;SDS011;43233;48.608;8.838;2023-08-06T14:22:43;0.80;;;0.80;;
32292;SDS011;43233;48.608;8.838;2023-08-06T14:25:09;0.90;;;0.90;;
32292;SDS011;43233;48.608;8.838;2023-08-06T14:27:35;1.00;;;1.00;;
32292;SDS011;43233;48.608;8.838;2023-08-06T14:30:01;1.23;;;0.90;;
32292;SDS011;43233;48.608;8.838;2023-08-06T14:32:28;1.87;;;1.70;;
32292;SDS011;43233;48.608;8.838;2023-08-06T14:34:54;0.83;;;0.83;;
32292;SDS011;43233;48.608;8.838;2023-08-06T14:37:19;1.10;;;1.00;;
32292;SDS011;43233;48.608;8.838;2023-08-06T14:39:45;0.80;;;0.80;;
32292;SDS011;43233;48.608;8.838;2023-08-06T14:42:11;0.63;;;0.63;;
32292;SDS011;43233;48.608;8.838;2023-08-06T14:44:36;2.70;;;1.23;;
32292;SDS011;43233;48.608;8.838;2023-08-06T14:47:02;1.00;;;1.00;;
32292;SDS011;43233;48.608;8.838;2023-08-06T14:49:28;1.00;;;1.00;;
32292;SDS011;43233;48.608;8.838;2023-08-06T14:51:53;0.73;;;0.73;;
32292;SDS011;43233;48.608;8.838;2023-08-06T14:54:19;0.97;;;0.97;;